sensor_id;sensor_type;location;lat;lon;timestamp;temperature;humidity
44843;DHT22;31884;52.538;13.820;2024-03-08T00:00:26;-2.10;96.90
44843;DHT22;31884;52.538;13.820;2024-03-08T00:02:52;-2.10;97.20
44843;DHT22;31884;52.538;13.820;2024-03-08T00:05:17;-2.10;97.30
44843;DHT22;31884;52.538;13.820;2024-03-08T00:07:43;-2.20;97.40
44843;DHT22;31884;52.538;13.820;2024-03-08T00:10:10;-2.20;97.80
44843;DHT22;31884;52.538;13.820;2024-03-08T00:12:37;-2.30;98.00
44843;DHT22;31884;52.538;13.820;2024-03-08T00:15:03;-2.30;97.70
44843;DHT22;31884;52.538;13.820;2024-03-08T00:17:29;-2.30;98.50
44843;DHT22;31884;52.538;13.820;2024-03-08T00:19:54;-2.40;98.50
44843;DHT22;31884;52.538;13.820;2024-03-08T00:22:20;-2.40;98.30
44843;DHT22;31884;52.538;13.820;2024-03-08T00:24:47;-2.40;98.80
44843;DHT22;31884;52.538;13.820;2024-03-08T00:27:14;-2.40;98.90
44843;DHT22;31884;52.538;13.820;2024-03-08T00:29:41;-2.40;98.70
44843;DHT22;31884;52.538;13.820;2024-03-08T00:32:06;-2.40;98.70
44843;DHT22;31884;52.538;13.820;2024-03-08T00:34:35;-2.50;99.30
44843;DHT22;31884;52.538;13.820;2024-03-08T00:37:02;-2.40;98.90
44843;DHT22;31884;52.538;13.820;2024-03-08T00:39:27;-2.40;99.80
44843;DHT22;31884;52.538;13.820;2024-03-08T00:41:53;-2.40;99.90
44843;DHT22;31884;52.538;13.820;2024-03-08T00:44:18;-2.50;99.90
44843;DHT22;31884;52.538;13.820;2024-03-08T00:46:44;-2.50;99.90
44843;DHT22;31884;52.538;13.820;2024-03-08T00:49:09;-2.40;99.90
44843;DHT22;31884;52.538;13.820;2024-03-08T00:51:35;-2.40;99.90
44843;DHT22;31884;52.538;13.820;2024-03-08T00:54:01;-2.50;99.90
44843;DHT22;31884;52.538;13.820;2024-03-08T00:56:26;-2.40;99.90
44843;DHT22;31884;52.538;13.820;2024-03-08T00:58:52;-2.40;99.90
44843;DHT22;31884;52.538;13.820;2024-03-08T01:01:19;-2.40;99.90
44843;DHT22;31884;52.538;13.820;2024-03-08T01:03:44;-2.50;99.90
44843;DHT22;31884;52.538;13.820;2024-03-08T01:06:10;-2.50;99.90
44843;DHT22;31884;52.538;13.820;2024-03-08T01:08:37;-2.60;99.90
44843;DHT22;31884;52.538;13.820;2024-03-08T01:11:04;-2.50;99.90
44843;DHT22;31884;52.538;13.820;2024-03-08T01:13:30;-2.60;99.90
44843;DHT22;31884;52.538;13.820;2024-03-08T01:15:56;-2.60;99.90
44843;DHT22;31884;52.538;13.820;2024-03-08T01:18:21;-2.60;99.90
44843;DHT22;31884;52.538;13.820;2024-03-08T01:20:47;-2.60;99.90
44843;DHT22;31884;52.538;13.820;2024-03-08T01:23:12;-2.70;99.90
44843;DHT22;31884;52.538;13.820;2024-03-08T01:25:39;-2.70;99.90
44843;DHT22;31884;52.538;13.820;2024-03-08T01:28:05;-2.70;99.90
44843;DHT22;31884;52.538;13.820;2024-03-08T01:30:30;-2.70;99.90
44843;DHT22;31884;52.538;13.820;2024-03-08T01:32:58;-2.70;99.90
44843;DHT22;31884;52.538;13.820;2024-03-08T01:35:23;-2.80;99.90
44843;DHT22;31884;52.538;13.820;2024-03-08T01:37:49;-2.80;99.90
44843;DHT22;31884;52.538;13.820;2024-03-08T01:40:15;-2.80;99.90
44843;DHT22;31884;52.538;13.820;2024-03-08T01:42:42;-2.80;99.90
44843;DHT22;31884;52.538;13.820;2024-03-08T01:45:08;-2.80;99.90
44843;DHT22;31884;52.538;13.820;2024-03-08T01:47:34;-2.80;99.90
44843;DHT22;31884;52.538;13.820;2024-03-08T01:50:00;-2.80;99.90
44843;DHT22;31884;52.538;13.820;2024-03-08T01:52:29;-2.80;99.90
44843;DHT22;31884;52.538;13.820;2024-03-08T01:54:59;-2.80;99.90
44843;DHT22;31884;52.538;13.820;2024-03-08T01:57:26;-2.80;99.90
44843;DHT22;31884;52.538;13.820;2024-03-08T01:59:52;-2.70;99.90
44843;DHT22;31884;52.538;13.820;2024-03-08T02:02:19;-2.70;99.90
44843;DHT22;31884;52.538;13.820;2024-03-08T02:04:45;-2.70;99.90
44843;DHT22;31884;52.538;13.820;2024-03-08T02:07:11;-2.70;99.90
44843;DHT22;31884;52.538;13.820;2024-03-08T02:09:36;-2.70;99.90
44843;DHT22;31884;52.538;13.820;2024-03-08T02:12:02;-2.70;99.90
44843;DHT22;31884;52.538;13.820;2024-03-08T02:14:28;-2.60;99.90
44843;DHT22;31884;52.538;13.820;2024-03-08T02:16:53;-2.60;99.90
44843;DHT22;31884;52.538;13.820;2024-03-08T02:19:19;-2.60;99.90
44843;DHT22;31884;52.538;13.820;2024-03-08T02:21:45;-2.60;99.90
44843;DHT22;31884;52.538;13.820;2024-03-08T02:24:12;-2.60;99.90
44843;DHT22;31884;52.538;13.820;2024-03-08T02:26:38;-2.60;99.90
44843;DHT22;31884;52.538;13.820;2024-03-08T02:29:04;-2.70;99.90
44843;DHT22;31884;52.538;13.820;2024-03-08T02:31:30;-2.70;99.90
44843;DHT22;31884;52.538;13.820;2024-03-08T02:33:56;-2.70;99.90
44843;DHT22;31884;52.538;13.820;2024-03-08T02:36:21;-2.70;99.90
44843;DHT22;31884;52.538;13.820;2024-03-08T02:38:47;-2.70;99.90
44843;DHT22;31884;52.538;13.820;2024-03-08T02:41:12;-2.80;99.90
44843;DHT22;31884;52.538;13.820;2024-03-08T02:43:38;-2.80;99.90
44843;DHT22;31884;52.538;13.820;2024-03-08T02:46:03;-2.80;99.90
44843;DHT22;31884;52.538;13.820;2024-03-08T02:48:30;-2.80;99.90
44843;DHT22;31884;52.538;13.820;2024-03-08T02:50:56;-2.80;99.90
44843;DHT22;31884;52.538;13.820;2024-03-08T02:53:21;-2.80;99.90
44843;DHT22;31884;52.538;13.820;2024-03-08T02:55:47;-2.80;99.90
44843;DHT22;31884;52.538;13.820;2024-03-08T02:58:13;-2.80;99.90
44843;DHT22;31884;52.538;13.820;2024-03-08T03:00:40;-2.80;99.90
44843;DHT22;31884;52.538;13.820;2024-03-08T03:03:06;-2.70;99.90
44843;DHT22;31884;52.538;13.820;2024-03-08T03:05:32;-2.70;99.90
44843;DHT22;31884;52.538;13.820;2024-03-08T03:07:58;-2.70;99.90
44843;DHT22;31884;52.538;13.820;2024-03-08T03:10:23;-2.60;99.90
44843;DHT22;31884;52.538;13.820;2024-03-08T03:12:50;-2.60;99.90
44843;DHT22;31884;52.538;13.820;2024-03-08T03:15:16;-2.60;99.90
44843;DHT22;31884;52.538;13.820;2024-03-08T03:17:46;-2.60;99.90
44843;DHT22;31884;52.538;13.820;2024-03-08T03:20:12;-2.60;99.90
44843;DHT22;31884;52.538;13.820;2024-03-08T03:22:48;-2.70;99.90
44843;DHT22;31884;52.538;13.820;2024-03-08T03:25:17;-2.70;99.90
44843;DHT22;31884;52.538;13.820;2024-03-08T03:27:49;-2.70;99.90
44843;DHT22;31884;52.538;13.820;2024-03-08T03:30:15;-2.70;99.90
44843;DHT22;31884;52.538;13.820;2024-03-08T03:32:47;-2.70;99.90
44843;DHT22;31884;52.538;13.820;2024-03-08T03:35:14;-2.70;99.90
44843;DHT22;31884;52.538;13.820;2024-03-08T03:37:40;-2.70;99.90
44843;DHT22;31884;52.538;13.820;2024-03-08T03:40:08;-2.60;99.90
44843;DHT22;31884;52.538;13.820;2024-03-08T03:42:34;-2.60;99.90
44843;DHT22;31884;52.538;13.820;2024-03-08T03:44:59;-2.60;99.90
44843;DHT22;31884;52.538;13.820;2024-03-08T03:47:25;-2.60;99.90
44843;DHT22;31884;52.538;13.820;2024-03-08T03:49:52;-2.70;99.90
44843;DHT22;31884;52.538;13.820;2024-03-08T03:52:18;-2.70;99.90
44843;DHT22;31884;52.538;13.820;2024-03-08T03:54:44;-2.70;99.90
44843;DHT22;31884;52.538;13.820;2024-03-08T03:57:09;-2.70;99.90
44843;DHT22;31884;52.538;13.820;2024-03-08T03:59:35;-2.70;99.90
44843;DHT22;31884;52.538;13.820;2024-03-08T04:02:01;-2.70;99.90
44843;DHT22;31884;52.538;13.820;2024-03-08T04:04:26;-2.70;99.90
44843;DHT22;31884;52.538;13.820;2024-03-08T04:06:52;-2.90;99.90
44843;DHT22;31884;52.538;13.820;2024-03-08T04:09:17;-2.90;99.90
44843;DHT22;31884;52.538;13.820;2024-03-08T04:11:48;-2.90;99.90
44843;DHT22;31884;52.538;13.820;2024-03-08T04:14:13;-2.90;99.90
44843;DHT22;31884;52.538;13.820;2024-03-08T04:16:39;-2.90;99.90
44843;DHT22;31884;52.538;13.820;2024-03-08T04:19:04;-2.90;99.90
44843;DHT22;31884;52.538;13.820;2024-03-08T04:21:30;-2.90;99.90
44843;DHT22;31884;52.538;13.820;2024-03-08T04:23:55;-2.90;99.90
44843;DHT22;31884;52.538;13.820;2024-03-08T04:26:21;-2.90;99.90
44843;DHT22;31884;52.538;13.820;2024-03-08T04:28:47;-2.90;99.90
44843;DHT22;31884;52.538;13.820;2024-03-08T04:31:12;-2.90;99.90
44843;DHT22;31884;52.538;13.820;2024-03-08T04:33:38;-2.90;99.90
44843;DHT22;31884;52.538;13.820;2024-03-08T04:36:04;-2.90;99.90
44843;DHT22;31884;52.538;13.820;2024-03-08T04:38:30;-2.90;99.90
44843;DHT22;31884;52.538;13.820;2024-03-08T04:40:56;-2.90;99.90
44843;DHT22;31884;52.538;13.820;2024-03-08T04:43:22;-2.90;99.90
44843;DHT22;31884;52.538;13.820;2024-03-08T04:45:51;-2.90;99.90
44843;DHT22;31884;52.538;13.820;2024-03-08T04:48:16;-2.90;99.90
44843;DHT22;31884;52.538;13.820;2024-03-08T04:50:41;-2.90;99.90
44843;DHT22;31884;52.538;13.820;2024-03-08T04:53:07;-2.90;99.90
44843;DHT22;31884;52.538;13.820;2024-03-08T04:55:34;-3.00;99.90
44843;DHT22;31884;52.538;13.820;2024-03-08T04:57:59;-3.00;99.90
44843;DHT22;31884;52.538;13.820;2024-03-08T05:00:25;-3.00;99.90
44843;DHT22;31884;52.538;13.820;2024-03-08T05:02:50;-2.90;99.90
44843;DHT22;31884;52.538;13.820;2024-03-08T05:05:18;-2.90;99.90
44843;DHT22;31884;52.538;13.820;2024-03-08T05:07:44;-2.90;99.90
44843;DHT22;31884;52.538;13.820;2024-03-08T05:10:11;-2.80;99.90
44843;DHT22;31884;52.538;13.820;2024-03-08T05:12:36;-2.80;99.90
44843;DHT22;31884;52.538;13.820;2024-03-08T05:15:05;-2.80;99.90
44843;DHT22;31884;52.538;13.820;2024-03-08T05:17:30;-2.80;99.90
44843;DHT22;31884;52.538;13.820;2024-03-08T05:19:56;-2.90;99.90
44843;DHT22;31884;52.538;13.820;2024-03-08T05:22:22;-3.00;99.90
44843;DHT22;31884;52.538;13.820;2024-03-08T05:24:47;-3.00;99.90
44843;DHT22;31884;52.538;13.820;2024-03-08T05:27:13;-3.10;99.90
44843;DHT22;31884;52.538;13.820;2024-03-08T05:29:38;-3.10;99.90
44843;DHT22;31884;52.538;13.820;2024-03-08T05:32:04;-3.10;99.90
44843;DHT22;31884;52.538;13.820;2024-03-08T05:34:29;-3.10;99.90
44843;DHT22;31884;52.538;13.820;2024-03-08T05:36:55;-3.10;99.90
44843;DHT22;31884;52.538;13.820;2024-03-08T05:39:21;-3.10;99.90
44843;DHT22;31884;52.538;13.820;2024-03-08T05:41:47;-3.00;99.90
44843;DHT22;31884;52.538;13.820;2024-03-08T05:44:13;-3.00;99.90
44843;DHT22;31884;52.538;13.820;2024-03-08T05:46:38;-3.00;99.90
44843;DHT22;31884;52.538;13.820;2024-03-08T05:49:05;-2.90;99.90
44843;DHT22;31884;52.538;13.820;2024-03-08T05:51:35;-2.90;99.90
44843;DHT22;31884;52.538;13.820;2024-03-08T05:54:04;-2.80;99.90
44843;DHT22;31884;52.538;13.820;2024-03-08T05:56:36;-2.70;99.90
44843;DHT22;31884;52.538;13.820;2024-03-08T05:59:03;-2.60;99.90
44843;DHT22;31884;52.538;13.820;2024-03-08T06:01:29;-2.60;99.90
44843;DHT22;31884;52.538;13.820;2024-03-08T06:03:56;-2.50;99.90
44843;DHT22;31884;52.538;13.820;2024-03-08T06:06:22;-2.40;99.90
44843;DHT22;31884;52.538;13.820;2024-03-08T06:08:49;-2.30;99.90
44843;DHT22;31884;52.538;13.820;2024-03-08T06:11:15;-2.20;99.90
44843;DHT22;31884;52.538;13.820;2024-03-08T06:13:42;-2.10;99.90
44843;DHT22;31884;52.538;13.820;2024-03-08T06:16:08;-2.00;99.90
44843;DHT22;31884;52.538;13.820;2024-03-08T06:18:36;-1.80;99.90
44843;DHT22;31884;52.538;13.820;2024-03-08T06:21:05;-1.60;99.90
44843;DHT22;31884;52.538;13.820;2024-03-08T06:23:34;-1.20;99.90
44843;DHT22;31884;52.538;13.820;2024-03-08T06:26:04;-0.80;99.90
44843;DHT22;31884;52.538;13.820;2024-03-08T06:28:29;-0.30;99.90
44843;DHT22;31884;52.538;13.820;2024-03-08T06:30:55;0.10;99.90
44843;DHT22;31884;52.538;13.820;2024-03-08T06:33:20;0.60;99.90
44843;DHT22;31884;52.538;13.820;2024-03-08T06:35:46;1.00;99.90
44843;DHT22;31884;52.538;13.820;2024-03-08T06:38:11;1.50;99.90
44843;DHT22;31884;52.538;13.820;2024-03-08T06:40:37;1.80;99.90
44843;DHT22;31884;52.538;13.820;2024-03-08T06:43:02;2.10;99.90
44843;DHT22;31884;52.538;13.820;2024-03-08T06:45:31;2.40;99.90
44843;DHT22;31884;52.538;13.820;2024-03-08T06:47:56;2.80;99.90
44843;DHT22;31884;52.538;13.820;2024-03-08T06:50:22;3.10;99.90
44843;DHT22;31884;52.538;13.820;2024-03-08T06:52:47;3.40;99.90
44843;DHT22;31884;52.538;13.820;2024-03-08T06:55:19;3.70;99.90
44843;DHT22;31884;52.538;13.820;2024-03-08T06:57:45;3.90;99.90
44843;DHT22;31884;52.538;13.820;2024-03-08T07:00:10;4.20;99.90
44843;DHT22;31884;52.538;13.820;2024-03-08T07:02:40;4.50;99.90
44843;DHT22;31884;52.538;13.820;2024-03-08T07:05:07;4.90;98.30
44843;DHT22;31884;52.538;13.820;2024-03-08T07:07:35;5.20;97.90
44843;DHT22;31884;52.538;13.820;2024-03-08T07:10:01;5.50;97.70
44843;DHT22;31884;52.538;13.820;2024-03-08T07:12:26;5.80;95.30
44843;DHT22;31884;52.538;13.820;2024-03-08T07:14:52;6.00;96.20
44843;DHT22;31884;52.538;13.820;2024-03-08T07:17:18;6.20;93.00
44843;DHT22;31884;52.538;13.820;2024-03-08T07:19:44;6.50;92.80
44843;DHT22;31884;52.538;13.820;2024-03-08T07:22:10;6.70;93.60
44843;DHT22;31884;52.538;13.820;2024-03-08T07:24:36;6.80;90.50
44843;DHT22;31884;52.538;13.820;2024-03-08T07:27:18;7.10;91.10
44843;DHT22;31884;52.538;13.820;2024-03-08T07:29:43;7.40;89.70
44843;DHT22;31884;52.538;13.820;2024-03-08T07:32:09;7.60;90.20
44843;DHT22;31884;52.538;13.820;2024-03-08T07:34:49;7.80;88.10
44843;DHT22;31884;52.538;13.820;2024-03-08T07:37:16;7.80;85.90
44843;DHT22;31884;52.538;13.820;2024-03-08T07:39:42;8.00;85.60
44843;DHT22;31884;52.538;13.820;2024-03-08T07:42:08;8.00;81.40
44843;DHT22;31884;52.538;13.820;2024-03-08T07:44:35;8.10;80.40
44843;DHT22;31884;52.538;13.820;2024-03-08T07:47:00;8.10;75.70
44843;DHT22;31884;52.538;13.820;2024-03-08T07:49:26;8.20;73.70
44843;DHT22;31884;52.538;13.820;2024-03-08T07:51:51;8.20;71.80
44843;DHT22;31884;52.538;13.820;2024-03-08T07:54:17;8.20;72.70
44843;DHT22;31884;52.538;13.820;2024-03-08T07:56:42;8.30;71.50
44843;DHT22;31884;52.538;13.820;2024-03-08T07:59:08;8.60;71.10
44843;DHT22;31884;52.538;13.820;2024-03-08T08:01:33;8.90;68.40
44843;DHT22;31884;52.538;13.820;2024-03-08T08:03:59;8.90;67.20
44843;DHT22;31884;52.538;13.820;2024-03-08T08:06:27;9.00;69.90
44843;DHT22;31884;52.538;13.820;2024-03-08T08:08:52;9.10;70.40
44843;DHT22;31884;52.538;13.820;2024-03-08T08:11:18;9.30;69.30
44843;DHT22;31884;52.538;13.820;2024-03-08T08:13:43;9.40;67.90
44843;DHT22;31884;52.538;13.820;2024-03-08T08:16:09;9.60;65.60
44843;DHT22;31884;52.538;13.820;2024-03-08T08:18:36;9.50;62.60
44843;DHT22;31884;52.538;13.820;2024-03-08T08:21:02;9.50;61.80
44843;DHT22;31884;52.538;13.820;2024-03-08T08:23:28;9.60;61.40
44843;DHT22;31884;52.538;13.820;2024-03-08T08:25:55;9.60;61.80
44843;DHT22;31884;52.538;13.820;2024-03-08T08:28:21;9.70;58.90
44843;DHT22;31884;52.538;13.820;2024-03-08T08:30:46;9.80;59.20
44843;DHT22;31884;52.538;13.820;2024-03-08T08:33:12;9.90;57.90
44843;DHT22;31884;52.538;13.820;2024-03-08T08:35:38;9.80;55.40
44843;DHT22;31884;52.538;13.820;2024-03-08T08:38:06;9.70;53.80
44843;DHT22;31884;52.538;13.820;2024-03-08T08:40:33;9.60;53.80
44843;DHT22;31884;52.538;13.820;2024-03-08T08:42:58;9.50;52.20
44843;DHT22;31884;52.538;13.820;2024-03-08T08:45:25;9.30;49.90
44843;DHT22;31884;52.538;13.820;2024-03-08T08:47:51;9.30;52.00
44843;DHT22;31884;52.538;13.820;2024-03-08T08:50:17;9.30;49.80
44843;DHT22;31884;52.538;13.820;2024-03-08T08:52:48;9.30;50.90
44843;DHT22;31884;52.538;13.820;2024-03-08T08:55:14;9.00;50.10
44843;DHT22;31884;52.538;13.820;2024-03-08T08:57:43;9.20;52.10
44843;DHT22;31884;52.538;13.820;2024-03-08T09:00:09;9.20;50.40
44843;DHT22;31884;52.538;13.820;2024-03-08T09:02:40;9.20;49.20
44843;DHT22;31884;52.538;13.820;2024-03-08T09:05:06;9.10;50.20
44843;DHT22;31884;52.538;13.820;2024-03-08T09:07:33;9.20;49.00
44843;DHT22;31884;52.538;13.820;2024-03-08T09:09:59;9.20;48.50
44843;DHT22;31884;52.538;13.820;2024-03-08T09:12:25;9.20;48.40
44843;DHT22;31884;52.538;13.820;2024-03-08T09:14:51;9.20;47.70
44843;DHT22;31884;52.538;13.820;2024-03-08T09:17:16;9.20;46.10
44843;DHT22;31884;52.538;13.820;2024-03-08T09:19:48;9.10;46.40
44843;DHT22;31884;52.538;13.820;2024-03-08T09:22:13;9.10;47.70
44843;DHT22;31884;52.538;13.820;2024-03-08T09:24:39;9.20;48.40
44843;DHT22;31884;52.538;13.820;2024-03-08T09:27:05;9.30;49.00
44843;DHT22;31884;52.538;13.820;2024-03-08T09:29:31;9.40;48.50
44843;DHT22;31884;52.538;13.820;2024-03-08T09:31:56;9.70;48.20
44843;DHT22;31884;52.538;13.820;2024-03-08T09:34:22;9.70;45.10
44843;DHT22;31884;52.538;13.820;2024-03-08T09:36:47;9.50;43.50
44843;DHT22;31884;52.538;13.820;2024-03-08T09:39:13;9.30;44.10
44843;DHT22;31884;52.538;13.820;2024-03-08T09:41:43;9.40;45.80
44843;DHT22;31884;52.538;13.820;2024-03-08T09:44:09;9.40;45.10
44843;DHT22;31884;52.538;13.820;2024-03-08T09:46:34;9.40;43.90
44843;DHT22;31884;52.538;13.820;2024-03-08T09:49:00;9.40;43.50
44843;DHT22;31884;52.538;13.820;2024-03-08T09:51:28;9.40;42.10
44843;DHT22;31884;52.538;13.820;2024-03-08T09:53:54;9.40;42.40
44843;DHT22;31884;52.538;13.820;2024-03-08T09:56:21;9.40;43.10
44843;DHT22;31884;52.538;13.820;2024-03-08T09:58:47;9.40;43.20
44843;DHT22;31884;52.538;13.820;2024-03-08T10:01:31;9.50;40.80
44843;DHT22;31884;52.538;13.820;2024-03-08T10:03:57;9.50;41.00
44843;DHT22;31884;52.538;13.820;2024-03-08T10:06:23;9.40;42.00
44843;DHT22;31884;52.538;13.820;2024-03-08T10:08:49;9.50;39.20
44843;DHT22;31884;52.538;13.820;2024-03-08T10:11:17;9.20;39.30
44843;DHT22;31884;52.538;13.820;2024-03-08T10:13:44;9.10;41.10
44843;DHT22;31884;52.538;13.820;2024-03-08T10:16:12;9.00;41.00
44843;DHT22;31884;52.538;13.820;2024-03-08T10:18:37;9.00;40.60
44843;DHT22;31884;52.538;13.820;2024-03-08T10:23:30;9.00;41.80
44843;DHT22;31884;52.538;13.820;2024-03-08T10:25:55;9.10;41.50
44843;DHT22;31884;52.538;13.820;2024-03-08T10:28:23;8.90;39.40
44843;DHT22;31884;52.538;13.820;2024-03-08T10:30:50;8.80;39.70
44843;DHT22;31884;52.538;13.820;2024-03-08T10:33:15;8.60;38.90
44843;DHT22;31884;52.538;13.820;2024-03-08T10:35:41;8.40;39.40
44843;DHT22;31884;52.538;13.820;2024-03-08T10:38:10;8.30;39.50
44843;DHT22;31884;52.538;13.820;2024-03-08T10:40:39;8.10;40.00
44843;DHT22;31884;52.538;13.820;2024-03-08T10:43:06;8.00;40.90
44843;DHT22;31884;52.538;13.820;2024-03-08T10:45:38;7.90;41.40
44843;DHT22;31884;52.538;13.820;2024-03-08T10:48:34;7.80;40.70
44843;DHT22;31884;52.538;13.820;2024-03-08T10:51:04;7.60;41.20
44843;DHT22;31884;52.538;13.820;2024-03-08T10:53:30;7.40;41.30
44843;DHT22;31884;52.538;13.820;2024-03-08T10:55:56;7.40;41.60
44843;DHT22;31884;52.538;13.820;2024-03-08T10:58:24;7.30;42.10
44843;DHT22;31884;52.538;13.820;2024-03-08T11:00:54;7.30;41.80
44843;DHT22;31884;52.538;13.820;2024-03-08T11:06:18;7.30;41.50
44843;DHT22;31884;52.538;13.820;2024-03-08T11:08:48;7.30;41.20
44843;DHT22;31884;52.538;13.820;2024-03-08T11:11:26;7.30;40.90
44843;DHT22;31884;52.538;13.820;2024-03-08T11:14:00;7.20;40.50
44843;DHT22;31884;52.538;13.820;2024-03-08T11:19:00;7.20;41.30
44843;DHT22;31884;52.538;13.820;2024-03-08T11:21:30;7.20;40.70
44843;DHT22;31884;52.538;13.820;2024-03-08T11:24:07;7.20;41.20
44843;DHT22;31884;52.538;13.820;2024-03-08T11:26:33;7.20;40.70
44843;DHT22;31884;52.538;13.820;2024-03-08T11:32:19;7.30;40.70
44843;DHT22;31884;52.538;13.820;2024-03-08T11:34:48;7.20;40.30
44843;DHT22;31884;52.538;13.820;2024-03-08T11:37:16;7.20;40.60
44843;DHT22;31884;52.538;13.820;2024-03-08T11:39:47;7.30;40.90
44843;DHT22;31884;52.538;13.820;2024-03-08T11:42:19;7.30;41.00
44843;DHT22;31884;52.538;13.820;2024-03-08T11:44:46;7.40;40.90
44843;DHT22;31884;52.538;13.820;2024-03-08T11:47:13;7.40;41.20
44843;DHT22;31884;52.538;13.820;2024-03-08T11:49:40;7.40;41.10
44843;DHT22;31884;52.538;13.820;2024-03-08T11:52:11;7.30;41.10
44843;DHT22;31884;52.538;13.820;2024-03-08T11:54:38;7.30;41.20
44843;DHT22;31884;52.538;13.820;2024-03-08T11:57:04;7.30;41.30
44843;DHT22;31884;52.538;13.820;2024-03-08T11:59:30;7.40;42.70
44843;DHT22;31884;52.538;13.820;2024-03-08T12:02:03;7.40;41.60
44843;DHT22;31884;52.538;13.820;2024-03-08T12:04:29;7.40;42.20
44843;DHT22;31884;52.538;13.820;2024-03-08T12:06:58;7.50;42.00
44843;DHT22;31884;52.538;13.820;2024-03-08T12:09:24;7.40;42.30
44843;DHT22;31884;52.538;13.820;2024-03-08T12:11:51;7.50;42.90
44843;DHT22;31884;52.538;13.820;2024-03-08T12:14:17;7.60;42.90
44843;DHT22;31884;52.538;13.820;2024-03-08T12:16:43;7.70;42.40
44843;DHT22;31884;52.538;13.820;2024-03-08T12:19:09;7.70;41.80
44843;DHT22;31884;52.538;13.820;2024-03-08T12:21:36;7.70;41.70
44843;DHT22;31884;52.538;13.820;2024-03-08T12:24:09;7.60;41.70
44843;DHT22;31884;52.538;13.820;2024-03-08T12:26:38;7.50;41.70
44843;DHT22;31884;52.538;13.820;2024-03-08T12:31:49;7.60;42.00
44843;DHT22;31884;52.538;13.820;2024-03-08T12:34:16;7.60;42.00
44843;DHT22;31884;52.538;13.820;2024-03-08T12:36:52;7.70;41.70
44843;DHT22;31884;52.538;13.820;2024-03-08T12:39:19;7.70;41.50
44843;DHT22;31884;52.538;13.820;2024-03-08T12:41:49;7.70;41.60
44843;DHT22;31884;52.538;13.820;2024-03-08T12:44:17;7.70;42.50
44843;DHT22;31884;52.538;13.820;2024-03-08T12:46:44;7.70;43.00
44843;DHT22;31884;52.538;13.820;2024-03-08T12:49:10;7.70;43.30
44843;DHT22;31884;52.538;13.820;2024-03-08T12:51:37;7.80;44.10
44843;DHT22;31884;52.538;13.820;2024-03-08T12:54:04;7.90;43.50
44843;DHT22;31884;52.538;13.820;2024-03-08T12:56:33;7.90;43.50
44843;DHT22;31884;52.538;13.820;2024-03-08T12:59:00;7.90;43.30
44843;DHT22;31884;52.538;13.820;2024-03-08T13:01:26;7.80;43.20
44843;DHT22;31884;52.538;13.820;2024-03-08T13:03:55;7.80;43.40
44843;DHT22;31884;52.538;13.820;2024-03-08T13:06:21;7.90;43.50
44843;DHT22;31884;52.538;13.820;2024-03-08T13:08:50;7.90;43.50
44843;DHT22;31884;52.538;13.820;2024-03-08T13:11:16;8.00;43.50
44843;DHT22;31884;52.538;13.820;2024-03-08T13:13:42;8.00;42.60
44843;DHT22;31884;52.538;13.820;2024-03-08T13:16:08;8.00;42.60
44843;DHT22;31884;52.538;13.820;2024-03-08T13:18:34;8.00;42.70
44843;DHT22;31884;52.538;13.820;2024-03-08T13:21:00;8.00;41.80
44843;DHT22;31884;52.538;13.820;2024-03-08T13:23:30;8.00;41.10
44843;DHT22;31884;52.538;13.820;2024-03-08T13:25:56;7.90;41.10
44843;DHT22;31884;52.538;13.820;2024-03-08T13:28:22;8.00;41.10
44843;DHT22;31884;52.538;13.820;2024-03-08T13:30:48;7.90;40.90
44843;DHT22;31884;52.538;13.820;2024-03-08T13:33:14;8.00;40.90
44843;DHT22;31884;52.538;13.820;2024-03-08T13:35:40;8.00;40.50
44843;DHT22;31884;52.538;13.820;2024-03-08T13:38:06;8.00;41.40
44843;DHT22;31884;52.538;13.820;2024-03-08T13:40:34;8.00;40.20
44843;DHT22;31884;52.538;13.820;2024-03-08T13:43:00;8.00;40.60
44843;DHT22;31884;52.538;13.820;2024-03-08T13:45:26;8.10;40.00
44843;DHT22;31884;52.538;13.820;2024-03-08T13:47:53;8.10;40.10
44843;DHT22;31884;52.538;13.820;2024-03-08T13:50:19;8.20;39.40
44843;DHT22;31884;52.538;13.820;2024-03-08T13:52:48;8.20;38.40
44843;DHT22;31884;52.538;13.820;2024-03-08T13:55:18;8.20;38.50
44843;DHT22;31884;52.538;13.820;2024-03-08T13:57:44;8.20;37.00
44843;DHT22;31884;52.538;13.820;2024-03-08T14:00:11;8.30;37.10
44843;DHT22;31884;52.538;13.820;2024-03-08T14:02:38;8.30;37.80
44843;DHT22;31884;52.538;13.820;2024-03-08T14:05:06;8.40;36.80
44843;DHT22;31884;52.538;13.820;2024-03-08T14:07:37;8.40;36.50
44843;DHT22;31884;52.538;13.820;2024-03-08T14:10:02;8.50;34.90
44843;DHT22;31884;52.538;13.820;2024-03-08T14:12:28;8.40;33.20
44843;DHT22;31884;52.538;13.820;2024-03-08T14:14:54;8.50;32.10
44843;DHT22;31884;52.538;13.820;2024-03-08T14:17:19;8.50;32.00
44843;DHT22;31884;52.538;13.820;2024-03-08T14:19:45;8.50;31.80
44843;DHT22;31884;52.538;13.820;2024-03-08T14:22:11;8.50;31.80
44843;DHT22;31884;52.538;13.820;2024-03-08T14:24:40;8.50;31.40
44843;DHT22;31884;52.538;13.820;2024-03-08T14:27:05;8.50;30.00
44843;DHT22;31884;52.538;13.820;2024-03-08T14:29:33;8.50;30.20
44843;DHT22;31884;52.538;13.820;2024-03-08T14:31:59;8.50;30.00
44843;DHT22;31884;52.538;13.820;2024-03-08T14:34:26;8.50;30.30
44843;DHT22;31884;52.538;13.820;2024-03-08T14:36:53;8.50;30.30
44843;DHT22;31884;52.538;13.820;2024-03-08T14:39:19;8.50;30.00
44843;DHT22;31884;52.538;13.820;2024-03-08T14:41:50;8.50;30.20
44843;DHT22;31884;52.538;13.820;2024-03-08T14:44:20;8.50;30.40
44843;DHT22;31884;52.538;13.820;2024-03-08T14:46:46;8.60;30.80
44843;DHT22;31884;52.538;13.820;2024-03-08T14:49:12;8.60;30.20
44843;DHT22;31884;52.538;13.820;2024-03-08T14:51:38;8.60;30.30
44843;DHT22;31884;52.538;13.820;2024-03-08T14:54:03;8.60;30.80
44843;DHT22;31884;52.538;13.820;2024-03-08T14:56:34;8.60;30.30
44843;DHT22;31884;52.538;13.820;2024-03-08T14:59:00;8.50;30.20
44843;DHT22;31884;52.538;13.820;2024-03-08T15:01:26;8.60;30.70
44843;DHT22;31884;52.538;13.820;2024-03-08T15:03:55;8.60;30.70
44843;DHT22;31884;52.538;13.820;2024-03-08T15:06:21;8.50;30.80
44843;DHT22;31884;52.538;13.820;2024-03-08T15:08:47;8.50;30.40
44843;DHT22;31884;52.538;13.820;2024-03-08T15:11:13;8.50;30.40
44843;DHT22;31884;52.538;13.820;2024-03-08T15:13:47;8.50;30.20
44843;DHT22;31884;52.538;13.820;2024-03-08T15:16:16;8.50;30.20
44843;DHT22;31884;52.538;13.820;2024-03-08T15:18:43;8.40;30.60
44843;DHT22;31884;52.538;13.820;2024-03-08T15:21:13;8.40;30.20
44843;DHT22;31884;52.538;13.820;2024-03-08T15:23:44;8.40;30.40
44843;DHT22;31884;52.538;13.820;2024-03-08T15:26:15;8.40;30.70
44843;DHT22;31884;52.538;13.820;2024-03-08T15:28:42;8.30;30.80
44843;DHT22;31884;52.538;13.820;2024-03-08T15:31:07;8.40;30.80
44843;DHT22;31884;52.538;13.820;2024-03-08T15:33:33;8.40;30.80
44843;DHT22;31884;52.538;13.820;2024-03-08T15:35:59;8.40;30.90